Time;durP1;ratioP1;P1;durP2;ratioP2;P2;SDS_P1;SDS_P2;PMS_P1;PMS_P2;Temp;Humidity;BMP_temperature;BMP_pressure;BME280_temperature;BME280_humidity;BME280_pressure;Samples;Min_cycle;Max_cycle;Signal;HPM_P1;HPM_P2
2022/09/01 08:01:56;;;;;;;5.03;3.10;;;;;;;18.85;55.55;101902.69;5319404;27;1211264;-78
2022/09/01 08:04:27;;;;;;;8.70;2.70;;;;;;;19.09;55.44;101896.72;5341153;28;20379;-80
2022/09/01 08:06:59;;;;;;;6.07;2.58;;;;;;;19.04;55.42;101900.47;5338679;28;20111;-79
2022/09/01 08:09:30;;;;;;;6.75;3.03;;;;;;;19.36;54.59;101904.13;5339779;28;20390;-78
2022/09/01 08:12:04;;;;;;;5.15;2.45;;;;;;;19.42;54.68;101900.00;5338764;28;20051;-80
2022/09/01 08:14:35;;;;;;;8.45;2.83;;;;;;;19.34;54.19;101898.81;5342299;28;20374;-81
2022/09/01 08:17:07;;;;;;;13.30;3.35;;;;;;;19.47;54.41;101902.69;5326408;28;20067;-80
2022/09/01 08:19:39;;;;;;;3.33;2.25;;;;;;;19.86;53.70;101905.81;5343724;28;20130;-80
2022/09/01 08:22:10;;;;;;;5.35;3.25;;;;;;;19.73;53.49;101901.97;5337863;28;20015;-77
2022/09/01 08:24:41;;;;;;;9.40;2.97;;;;;;;19.93;53.29;101908.97;5337933;28;20534;-78
2022/09/01 08:27:13;;;;;;;6.47;2.47;;;;;;;20.11;52.91;101909.84;5331692;28;20131;-79
2022/09/01 08:29:44;;;;;;;5.47;3.17;;;;;;;20.16;52.54;101904.06;5338881;28;20059;-78
2022/09/01 08:32:15;;;;;;;9.82;6.60;;;;;;;20.25;53.02;101902.09;5341217;28;20381;-76
2022/09/01 08:34:47;;;;;;;10.15;4.20;;;;;;;20.19;53.04;101906.22;5336170;28;20114;-75
2022/09/01 08:37:19;;;;;;;6.82;3.30;;;;;;;20.13;53.67;101899.09;5341167;28;20022;-76
2022/09/01 08:39:51;;;;;;;6.70;4.03;;;;;;;20.10;54.12;101903.41;5341886;28;20085;-76
2022/09/01 08:42:44;;;;;;;7.95;3.20;;;;;;;20.20;53.58;101905.06;5334661;28;20028;-76
2022/09/01 08:45:23;;;;;;;10.43;3.47;;;;;;;20.28;53.61;101904.25;5340091;28;20019;-78
2022/09/01 08:48:15;;;;;;;10.15;2.92;;;;;;;20.32;54.32;101899.59;5345384;28;20070;-78
2022/09/01 08:50:54;;;;;;;7.55;3.00;;;;;;;20.44;52.62;101901.75;5341063;28;20076;-79
2022/09/01 08:53:34;;;;;;;6.90;5.15;;;;;;;20.61;52.66;101904.59;5339809;28;20020;-78
2022/09/01 08:56:09;;;;;;;8.93;3.97;;;;;;;20.70;52.47;101896.13;5330822;28;20039;-77
2022/09/01 08:58:41;;;;;;;5.68;2.88;;;;;;;20.67;52.24;101899.63;5336711;28;20035;-76
2022/09/01 09:01:45;;;;;;;5.68;2.85;;;;;;;20.78;52.42;101894.47;5325229;28;20054;-77
2022/09/01 09:04:33;;;;;;;6.97;3.45;;;;;;;20.91;52.30;101895.44;5331573;28;20046;-79
2022/09/01 09:07:18;;;;;;;11.63;6.65;;;;;;;20.92;52.58;101886.66;5340551;28;20067;-78
2022/09/01 09:09:56;;;;;;;8.98;2.67;;;;;;;21.09;51.42;101891.44;5334474;28;20022;-77
2022/09/01 09:12:40;;;;;;;7.13;2.78;;;;;;;21.13;51.37;101883.94;5330873;28;20445;-77
2022/09/01 09:15:25;;;;;;;5.28;2.58;;;;;;;21.09;51.33;101877.34;5329450;28;20027;-77
2022/09/01 09:18:10;;;;;;;7.60;2.40;;;;;;;21.28;50.30;101883.38;5319960;28;20055;-78
2022/09/01 09:20:43;;;;;;;4.65;2.40;;;;;;;21.33;49.70;101881.56;5312423;28;20031;-76
2022/09/01 09:23:32;;;;;;;10.10;5.68;;;;;;;21.43;50.64;101876.38;5322715;28;20051;-76
2022/09/01 09:26:04;;;;;;;6.93;2.55;;;;;;;21.51;49.86;101877.50;5314861;28;20424;-78
2022/09/01 09:28:38;;;;;;;5.65;2.45;;;;;;;21.55;49.56;101872.84;5327136;28;20024;-76
2022/09/01 09:31:41;;;;;;;5.78;2.60;;;;;;;21.65;49.84;101878.13;5310054;28;20526;-76
2022/09/01 09:34:34;;;;;;;6.50;2.38;;;;;;;21.76;49.27;101878.53;5326129;28;20019;-75
2022/09/01 09:37:28;;;;;;;4.25;2.60;;;;;;;21.75;48.52;101871.22;5325191;28;20028;-73
2022/09/01 09:40:10;;;;;;;3.42;2.13;;;;;;;21.81;47.74;101872.69;5314154;28;20031;-74
2022/09/01 09:42:54;;;;;;;6.35;2.60;;;;;;;21.88;47.77;101863.66;5318464;28;20423;-74
2022/09/01 09:45:39;;;;;;;5.53;2.63;;;;;;;21.94;46.50;101862.31;5323474;28;20458;-74
2022/09/01 09:48:32;;;;;;;4.70;2.13;;;;;;;22.01;47.55;101862.59;5316409;28;20024;-76
2022/09/01 09:51:19;;;;;;;7.15;1.98;;;;;;;22.09;46.79;101858.06;5323003;28;20019;-76
2022/09/01 09:53:51;;;;;;;6.47;2.95;;;;;;;22.15;45.06;101851.84;5318105;28;20032;-76
2022/09/01 09:56:23;;;;;;;4.47;1.63;;;;;;;22.19;44.83;101846.38;5317767;28;20111;-75
2022/09/01 09:58:54;;;;;;;3.88;1.75;;;;;;;22.23;44.64;101852.16;5309901;28;20107;-75
2022/09/01 10:01:28;;;;;;;6.05;1.83;;;;;;;22.37;44.91;101841.41;5325537;28;20126;-74
2022/09/01 10:04:02;;;;;;;5.90;1.85;;;;;;;22.45;44.08;101851.81;5321993;28;20402;-75
2022/09/01 10:06:37;;;;;;;3.87;2.10;;;;;;;22.41;43.58;101845.19;5316781;28;20015;-76
2022/09/01 10:09:16;;;;;;;6.35;1.83;;;;;;;22.48;42.91;101848.28;5309378;28;20318;-73
2022/09/01 10:11:51;;;;;;;5.70;1.38;;;;;;;22.48;41.47;101847.47;5318775;28;20032;-73
2022/09/01 10:14:27;;;;;;;2.55;1.60;;;;;;;22.56;41.82;101841.69;5318315;28;20020;-73
2022/09/01 10:17:07;;;;;;;4.65;1.38;;;;;;;22.49;40.72;101830.13;5309128;28;20461;-73
2022/09/01 10:19:45;;;;;;;4.25;1.67;;;;;;;22.61;40.76;101834.19;5325800;28;20051;-73
2022/09/01 10:22:17;;;;;;;2.15;1.30;;;;;;;22.67;41.05;101830.78;5313326;28;20127;-73
2022/09/01 10:24:49;;;;;;;4.90;1.40;;;;;;;22.76;39.84;101830.72;5318905;28;20032;-71
2022/09/01 10:27:29;;;;;;;3.47;1.30;;;;;;;22.88;40.24;101830.75;5324591;28;20436;-68
2022/09/01 10:30:06;;;;;;;3.13;1.40;;;;;;;22.91;39.54;101844.19;5315558;28;20146;-67
2022/09/01 10:32:44;;;;;;;3.63;1.52;;;;;;;22.94;39.98;101837.00;5318414;28;20039;-70
2022/09/01 10:35:28;;;;;;;6.07;2.65;;;;;;;22.94;38.62;101835.00;5312324;28;20462;-68
2022/09/01 10:38:05;;;;;;;4.78;1.73;;;;;;;23.06;39.20;101841.88;5324130;28;20032;-71
2022/09/01 10:40:45;;;;;;;4.60;3.05;;;;;;;23.16;37.76;101838.56;5324812;28;20020;-69
2022/09/01 10:43:32;;;;;;;8.68;1.58;;;;;;;23.05;38.12;101835.38;5322168;28;20502;-72
2022/09/01 10:46:18;;;;;;;3.38;1.58;;;;;;;22.97;40.27;101837.13;5306779;28;20016;-73
2022/09/01 10:48:51;;;;;;;5.63;2.20;;;;;;;23.08;38.15;101837.50;5303602;28;20039;-72
2022/09/01 10:51:22;;;;;;;2.53;1.67;;;;;;;23.15;37.95;101839.75;5323294;28;20023;-71
2022/09/01 10:53:56;;;;;;;2.97;1.50;;;;;;;23.34;37.17;101834.38;5324599;28;20442;-72
2022/09/01 10:56:39;;;;;;;4.82;1.60;;;;;;;23.33;37.86;101832.69;5311491;28;20326;-72
2022/09/01 10:59:25;;;;;;;2.20;1.40;;;;;;;23.30;36.81;101824.91;5323025;28;20020;-72
2022/09/01 11:02:12;;;;;;;3.95;2.03;;;;;;;23.33;37.29;101832.69;5316421;28;20376;-73
2022/09/01 11:04:43;;;;;;;4.13;1.52;;;;;;;23.22;37.23;101828.69;5320186;28;20055;-72
2022/09/01 11:07:18;;;;;;;3.17;1.40;;;;;;;23.34;37.24;101828.72;5322105;28;20059;-72
2022/09/01 11:10:14;;;;;;;3.88;1.50;;;;;;;23.38;37.07;101832.47;5323717;28;20089;-70
2022/09/01 11:13:33;;;;;;;3.40;1.25;;;;;;;23.50;37.22;101819.50;5309418;28;20082;-71
2022/09/01 11:16:23;;;;;;;2.47;1.40;;;;;;;23.58;36.98;101827.88;5288457;28;20040;-70
2022/09/01 11:19:21;;;;;;;3.15;1.33;;;;;;;23.65;36.58;101828.09;5319890;28;20453;-70
2022/09/01 11:22:20;;;;;;;5.78;2.45;;;;;;;23.67;36.02;101824.91;5311525;28;20028;-70
2022/09/01 11:25:07;;;;;;;4.60;1.67;;;;;;;23.58;36.26;101822.19;5319352;28;20039;-70
2022/09/01 11:27:47;;;;;;;1.60;1.10;;;;;;;23.74;36.53;101813.00;5322156;28;20390;-70
2022/09/01 11:30:29;;;;;;;4.30;1.48;;;;;;;23.74;36.72;101813.84;5312681;28;20139;-70
2022/09/01 11:33:33;;;;;;;2.67;1.42;;;;;;;23.86;35.51;101813.00;5320474;28;20043;-70
2022/09/01 11:36:14;;;;;;;3.50;1.58;;;;;;;23.73;35.33;101802.88;5286664;28;20339;-70
2022/09/01 11:39:12;;;;;;;3.33;1.40;;;;;;;23.90;35.29;101799.75;5318219;28;20477;-71
2022/09/01 11:41:52;;;;;;;3.47;1.52;;;;;;;23.95;35.33;101807.19;5285446;28;20428;-70
2022/09/01 11:44:44;;;;;;;5.32;2.67;;;;;;;24.11;35.58;101802.41;5311231;28;20331;-70
2022/09/01 11:47:35;;;;;;;2.95;1.33;;;;;;;24.12;36.20;101801.22;5319606;28;20024;-71
2022/09/01 11:50:17;;;;;;;4.40;1.30;;;;;;;24.27;35.93;101803.28;5323254;28;20031;-71
2022/09/01 11:53:12;;;;;;;3.10;1.35;;;;;;;24.33;35.25;101781.19;5323496;28;20090;-71
2022/09/01 11:55:50;;;;;;;3.47;1.10;;;;;;;24.36;35.22;101793.81;5320764;28;20525;-71
2022/09/01 11:58:27;;;;;;;5.13;1.42;;;;;;;24.37;34.10;101779.28;5311889;28;20039;-71
2022/09/01 12:01:21;;;;;;;5.65;1.15;;;;;;;24.45;34.83;101781.16;5319769;28;20043;-71
2022/09/01 12:03:53;;;;;;;4.28;1.40;;;;;;;24.42;33.89;101783.88;5316366;28;20099;-71
2022/09/01 12:06:30;;;;;;;2.53;0.93;;;;;;;24.63;33.02;101770.31;5320992;28;20525;-72
2022/09/01 12:09:04;;;;;;;3.10;1.30;;;;;;;24.70;32.54;101752.66;5323234;28;20027;-72
2022/09/01 12:11:35;;;;;;;3.33;1.35;;;;;;;24.96;33.18;101766.31;5320077;28;20035;-70
2022/09/01 12:14:09;;;;;;;3.55;1.45;;;;;;;25.00;33.16;101772.88;5314407;28;20374;-70
2022/09/01 12:16:41;;;;;;;1.63;1.33;;;;;;;24.98;32.82;101765.91;5311867;28;20031;-70
2022/09/01 12:19:24;;;;;;;3.53;1.13;;;;;;;25.11;32.13;101765.47;5310888;28;20087;-70
2022/09/01 12:22:14;;;;;;;3.28;1.55;;;;;;;25.01;32.06;101760.34;5301821;28;20039;-70
2022/09/01 12:24:53;;;;;;;3.00;2.13;;;;;;;25.23;31.61;101763.75;5317739;28;20034;-70
2022/09/01 12:27:27;;;;;;;4.07;0.98;;;;;;;25.10;31.82;101760.97;5320155;28;20069;-68
2022/09/01 12:29:59;;;;;;;2.97;1.27;;;;;;;25.19;30.89;101760.00;5323901;28;20031;-69
2022/09/01 12:32:30;;;;;;;12.20;8.98;;;;;;;25.28;30.80;101757.78;5319415;28;20053;-69
2022/09/01 12:35:12;;;;;;;4.50;1.30;;;;;;;25.22;31.54;101760.09;5314730;28;20107;-69
2022/09/01 12:37:44;;;;;;;5.63;1.40;;;;;;;25.24;30.83;101769.06;5319496;28;20035;-69
2022/09/01 12:40:33;;;;;;;3.10;1.20;;;;;;;25.29;30.78;101762.28;5322467;28;20404;-69
2022/09/01 12:43:05;;;;;;;2.30;1.30;;;;;;;25.37;30.72;101762.06;5322680;28;20034;-70
2022/09/01 12:45:45;;;;;;;2.85;1.00;;;;;;;25.56;30.94;101757.63;5308814;28;20367;-70
2022/09/01 12:48:28;;;;;;;3.40;1.30;;;;;;;25.72;29.68;101763.25;5321041;28;20050;-71
2022/09/01 12:51:17;;;;;;;7.22;4.90;;;;;;;25.93;29.95;101760.13;5319643;28;20027;-69
2022/09/01 12:53:57;;;;;;;1.88;1.10;;;;;;;25.92;29.05;101762.09;5308766;28;20020;-72
2022/09/01 12:56:31;;;;;;;5.38;1.75;;;;;;;25.89;29.26;101756.38;5321677;28;20108;-71
2022/09/01 12:59:19;;;;;;;1.90;1.35;;;;;;;25.92;28.71;101750.75;5326898;28;20019;-75
2022/09/01 13:01:51;;;;;;;2.58;1.00;;;;;;;25.79;27.99;101752.06;5315271;28;20052;-74
2022/09/01 13:04:24;;;;;;;2.20;1.17;;;;;;;26.02;28.31;101752.16;5318777;28;20035;-72
2022/09/01 13:07:02;;;;;;;1.85;1.45;;;;;;;26.11;27.89;101746.28;5310706;28;20031;-73
2022/09/01 13:09:34;;;;;;;3.22;1.15;;;;;;;25.97;27.70;101750.44;5326394;28;20027;-73
2022/09/01 13:12:17;;;;;;;2.50;1.40;;;;;;;26.18;28.59;101743.56;5327482;28;20046;-73
2022/09/01 13:14:49;;;;;;;2.97;1.50;;;;;;;26.18;27.63;101735.03;5325717;28;20024;-72
2022/09/01 13:17:22;;;;;;;2.85;1.50;;;;;;;26.22;27.44;101730.25;5319023;28;20030;-73
2022/09/01 13:19:53;;;;;;;1.33;1.08;;;;;;;26.31;27.36;101733.69;5326913;28;20027;-72
2022/09/01 13:22:25;;;;;;;2.83;2.25;;;;;;;26.46;27.09;101738.44;5317701;28;20011;-70
2022/09/01 13:24:56;;;;;;;3.40;1.25;;;;;;;26.34;26.39;101730.09;5313245;28;20043;-69
2022/09/01 13:27:27;;;;;;;2.05;1.10;;;;;;;26.31;26.92;101712.97;5307526;28;20532;-70
2022/09/01 13:29:58;;;;;;;3.13;1.83;;;;;;;26.49;27.74;101727.53;5323018;28;20063;-69
2022/09/01 13:32:30;;;;;;;2.45;1.02;;;;;;;26.53;26.85;101728.41;5325719;28;20020;-70
2022/09/01 13:35:01;;;;;;;2.42;1.23;;;;;;;26.63;27.18;101719.25;5318155;28;20032;-69
2022/09/01 13:37:33;;;;;;;2.30;1.20;;;;;;;26.81;27.20;101723.22;5321238;28;20016;-72
2022/09/01 13:40:07;;;;;;;12.50;1.60;;;;;;;26.74;27.40;101719.44;5310749;28;20133;-72
2022/09/01 13:42:38;;;;;;;4.32;1.20;;;;;;;26.67;26.87;101715.28;5324205;28;20056;-70
2022/09/01 13:45:12;;;;;;;1.55;1.02;;;;;;;26.95;26.87;101708.44;5321195;28;20474;-70
2022/09/01 13:47:46;;;;;;;3.55;1.10;;;;;;;26.83;26.49;101697.25;5310724;28;20055;-71
2022/09/01 13:50:21;;;;;;;6.32;1.38;;;;;;;27.01;27.28;101700.38;5326612;28;20024;-72
2022/09/01 13:52:55;;;;;;;1.77;1.00;;;;;;;26.80;26.57;101703.72;5325933;28;20046;-71
2022/09/01 13:55:30;;;;;;;4.93;1.33;;;;;;;26.75;26.44;101701.19;5309611;28;20102;-71
2022/09/01 13:58:04;;;;;;;2.90;1.88;;;;;;;27.04;25.73;101708.16;5316670;28;20394;-72
2022/09/01 14:00:39;;;;;;;2.28;1.58;;;;;;;27.29;26.67;101703.69;5324393;28;20096;-71
2022/09/01 14:03:16;;;;;;;;;;;;;;;27.54;25.51;101709.75;5309592;28;20039;-71
2022/09/01 14:05:48;;;;;;;4.20;1.50;;;;;;;27.19;25.18;101704.38;5324900;28;20007;-71
2022/09/01 14:08:21;;;;;;;1.75;1.38;;;;;;;27.09;24.70;101697.25;5314635;28;20127;-70
2022/09/01 14:10:53;;;;;;;3.90;1.42;;;;;;;27.04;25.21;101691.09;5317060;28;20371;-71
2022/09/01 14:13:25;;;;;;;4.20;1.60;;;;;;;26.91;25.04;101686.81;5315275;28;20030;-71
2022/09/01 14:15:57;;;;;;;3.78;1.85;;;;;;;27.02;25.52;101684.94;5318444;28;20320;-71
2022/09/01 14:18:31;;;;;;;2.85;1.63;;;;;;;27.06;25.15;101683.00;5321292;28;20085;-71
2022/09/01 14:21:03;;;;;;;18.17;14.27;;;;;;;26.94;24.94;101686.03;5308254;28;20055;-69
2022/09/01 14:23:34;;;;;;;5.43;2.63;;;;;;;26.94;26.28;101674.66;5320642;28;20048;-70
2022/09/01 14:26:10;;;;;;;5.40;1.80;;;;;;;27.07;25.98;101678.94;5318506;28;20538;-71
2022/09/01 14:28:44;;;;;;;4.55;1.70;;;;;;;26.93;25.61;101679.53;5325034;28;20043;-72
2022/09/01 14:31:17;;;;;;;2.83;1.17;;;;;;;26.83;24.87;101675.31;5323120;28;20031;-72
2022/09/01 14:33:49;;;;;;;3.65;1.60;;;;;;;26.97;25.03;101677.56;5317029;28;20069;-72
2022/09/01 14:36:22;;;;;;;4.57;1.90;;;;;;;26.80;24.83;101676.06;5304530;28;20028;-72
2022/09/01 14:38:54;;;;;;;5.20;1.60;;;;;;;26.71;24.97;101675.50;5321033;28;20080;-71
2022/09/01 14:41:25;;;;;;;3.83;1.30;;;;;;;26.71;24.78;101660.47;5319693;28;20028;-71
2022/09/01 14:44:01;;;;;;;3.88;1.65;;;;;;;26.74;25.66;101660.53;5316403;28;20028;-72
2022/09/01 14:46:42;;;;;;;3.60;1.42;;;;;;;26.79;26.21;101674.44;5317980;28;20470;-72
2022/09/01 14:49:15;;;;;;;4.38;2.03;;;;;;;26.56;25.76;101648.88;5320569;28;20051;-70
2022/09/01 14:51:47;;;;;;;2.45;1.65;;;;;;;26.53;26.83;101652.44;5319673;28;20020;-71
2022/09/01 14:54:18;;;;;;;3.38;1.48;;;;;;;26.31;25.55;101645.53;5315259;28;20122;-72
2022/09/01 14:56:49;;;;;;;3.60;1.33;;;;;;;26.44;26.46;101647.00;5324393;28;20027;-73
2022/09/01 14:59:20;;;;;;;6.72;1.80;;;;;;;26.63;27.12;101645.31;5321518;28;20067;-70
2022/09/01 15:01:52;;;;;;;5.10;1.65;;;;;;;26.54;26.65;101639.88;5319661;28;20446;-70
2022/09/01 15:04:23;;;;;;;5.07;1.70;;;;;;;26.52;26.83;101641.44;5312049;28;20054;-71
2022/09/01 15:06:55;;;;;;;9.07;2.70;;;;;;;26.41;26.65;101639.22;5320724;28;20390;-71
2022/09/01 15:09:26;;;;;;;5.88;2.08;;;;;;;26.21;26.86;101643.34;5319048;28;20023;-76
2022/09/01 15:11:57;;;;;;;10.23;3.13;;;;;;;26.36;26.36;101633.84;5316109;28;20081;-77
2022/09/01 15:14:31;;;;;;;4.30;2.38;;;;;;;26.46;27.90;101636.06;5311141;28;20020;-77
2022/09/01 15:17:02;;;;;;;6.63;3.55;;;;;;;26.27;26.47;101633.28;5319615;28;20028;-76
2022/09/01 15:19:34;;;;;;;7.82;2.97;;;;;;;26.26;27.22;101628.81;5316294;28;20491;-73
2022/09/01 15:22:07;;;;;;;10.07;3.85;;;;;;;26.21;26.14;101626.28;5312648;28;20035;-73
2022/09/01 15:24:39;;;;;;;9.68;4.05;;;;;;;26.15;26.18;101624.94;5320586;28;20424;-73
2022/09/01 15:27:10;;;;;;;7.97;4.38;;;;;;;26.34;26.34;101627.72;5322585;28;20024;-74
2022/09/01 15:29:46;;;;;;;7.82;3.78;;;;;;;26.24;26.83;101626.31;5309253;28;20031;-74
2022/09/01 15:32:17;;;;;;;8.65;4.30;;;;;;;26.17;26.85;101631.88;5321948;28;20042;-76
2022/09/01 15:34:49;;;;;;;3.20;2.63;;;;;;;26.15;27.19;101622.91;5324784;28;20035;-76
2022/09/01 15:37:20;;;;;;;5.18;3.05;;;;;;;26.19;27.37;101626.63;5309723;28;20023;-76
2022/09/01 15:39:51;;;;;;;5.80;3.00;;;;;;;26.14;26.95;101621.28;5316528;28;20528;-71
2022/09/01 15:42:23;;;;;;;3.90;2.33;;;;;;;26.08;27.49;101617.09;5319486;28;20073;-76
2022/09/01 15:44:54;;;;;;;4.95;2.20;;;;;;;25.93;26.62;101616.00;5323957;28;20031;-77
2022/09/01 15:47:25;;;;;;;4.75;2.00;;;;;;;25.92;27.44;101607.84;5324039;28;20529;-77
2022/09/01 15:49:57;;;;;;;5.18;2.35;;;;;;;25.99;27.72;101614.50;5323089;28;20442;-77
2022/09/01 15:52:28;;;;;;;6.25;2.65;;;;;;;26.03;28.05;101606.88;5310509;28;20031;-77
2022/09/01 15:55:01;;;;;;;6.05;2.70;;;;;;;26.12;27.46;101611.47;5320932;28;20034;-78
2022/09/01 15:57:33;;;;;;;5.93;2.70;;;;;;;26.04;28.23;101604.84;5324323;28;20098;-77
2022/09/01 16:00:06;;;;;;;4.38;2.30;;;;;;;26.00;27.74;101603.94;5321273;28;20035;-75
2022/09/01 16:02:37;;;;;;;3.65;2.20;;;;;;;26.02;28.18;101608.03;5314491;28;20118;-81
2022/09/01 16:05:09;;;;;;;3.88;2.20;;;;;;;25.93;27.31;101601.00;5319841;28;20130;-82
2022/09/01 16:07:41;;;;;;;3.60;1.98;;;;;;;25.82;27.98;101592.19;5309845;28;20081;-74
2022/09/01 16:10:13;;;;;;;6.32;1.98;;;;;;;25.91;28.11;101595.66;5322047;28;20031;-76
2022/09/01 16:12:45;;;;;;;3.45;2.00;;;;;;;25.88;28.45;101592.78;5319842;28;20040;-69
2022/09/01 16:15:19;;;;;;;4.13;2.28;;;;;;;25.97;28.37;101594.16;5319893;28;20058;-73
2022/09/01 16:18:06;;;;;;;4.50;1.85;;;;;;;26.08;28.35;101587.84;5318930;28;20523;-71
2022/09/01 16:20:47;;;;;;;4.43;1.73;;;;;;;25.86;28.40;101595.97;5318827;28;20032;-76
2022/09/01 16:23:31;;;;;;;1.95;1.40;;;;;;;25.86;28.39;101589.47;5325227;28;20038;-73
2022/09/01 16:26:02;;;;;;;4.03;1.88;;;;;;;25.81;28.44;101582.88;5320791;28;20012;-72
2022/09/01 16:28:35;;;;;;;5.25;1.92;;;;;;;25.83;28.91;101578.84;5321976;28;20093;-73
2022/09/01 16:31:12;;;;;;;6.95;1.90;;;;;;;25.84;29.65;101571.94;5324515;28;20026;-78
2022/09/01 16:33:48;;;;;;;4.95;2.47;;;;;;;26.06;28.95;101573.22;5327236;28;20020;-77
2022/09/01 16:36:36;;;;;;;3.42;2.00;;;;;;;26.06;29.50;101573.22;5324100;28;20243;-76
2022/09/01 16:39:24;;;;;;;5.05;2.28;;;;;;;25.93;29.71;101578.25;5325997;28;20389;-73
2022/09/01 16:42:17;;;;;;;4.90;1.75;;;;;;;25.99;29.64;101571.06;5319144;28;20028;-73
2022/09/01 16:45:00;;;;;;;4.75;1.75;;;;;;;25.97;30.06;101571.41;5323132;28;20032;-74
2022/09/01 16:47:34;;;;;;;4.00;1.95;;;;;;;25.86;29.69;101576.09;5311373;28;20386;-74
2022/09/01 16:50:23;;;;;;;6.00;2.70;;;;;;;25.81;30.07;101573.53;5327797;28;20054;-75
2022/09/01 16:53:01;;;;;;;3.03;1.85;;;;;;;25.65;30.13;101569.97;5311190;28;20039;-77
2022/09/01 16:55:40;;;;;;;9.52;3.70;;;;;;;25.65;31.97;101567.13;5322985;28;20032;-77
2022/09/01 16:58:17;;;;;;;3.10;2.00;;;;;;;25.60;31.09;101557.72;5325819;28;20379;-77
2022/09/01 17:01:11;;;;;;;5.70;1.98;;;;;;;25.58;30.93;101560.09;5315754;28;20410;-78
2022/09/01 17:04:11;;;;;;;3.25;1.85;;;;;;;25.52;31.00;101555.94;5323172;28;20363;-78
2022/09/01 17:06:55;;;;;;;4.63;1.92;;;;;;;25.41;32.11;101554.88;5319464;28;20066;-78
2022/09/01 17:09:41;;;;;;;4.57;1.80;;;;;;;25.54;31.15;101559.22;5318771;28;20098;-79
2022/09/01 17:12:32;;;;;;;3.92;1.63;;;;;;;25.41;31.26;101554.88;5318655;28;20063;-78
2022/09/01 17:15:11;;;;;;;8.75;4.20;;;;;;;25.42;31.30;101550.88;5322623;28;20036;-78
2022/09/01 17:18:05;;;;;;;2.30;1.63;;;;;;;25.31;31.58;101556.34;5326720;28;20028;-81
2022/09/01 17:20:41;;;;;;;4.28;1.70;;;;;;;25.29;31.47;101555.88;5303175;28;20112;-80
2022/09/01 17:23:16;;;;;;;5.70;1.80;;;;;;;25.26;31.60;101552.94;5323704;28;20031;-80
2022/09/01 17:25:54;;;;;;;7.40;1.80;;;;;;;25.15;31.79;101559.19;5319498;28;20436;-80
2022/09/01 17:28:33;;;;;;;4.18;1.73;;;;;;;25.14;31.97;101551.88;5321159;28;20027;-78
2022/09/01 17:31:13;;;;;;;4.00;1.90;;;;;;;25.07;32.29;101557.38;5309702;28;20034;-79
